首页
METAR-TAF:

METAR-TAF

机场 :

弗兰斯·凯西波国际机场

比亞克島, 印度尼西亚

纬度: 01-11S, 经度: 136-07E, 海拔: 11米

当前天气观测

该预报发布于1小时和19分钟前的15:00 UTC
风速4节,风向北转西北
温度 27°C
湿度 89%
气压 1008 hPa
能见度10公里或以上
少量云层高于1800英尺

METAR: WABB 131500Z 34004KT 9999 FEW018 27/25 Q1008 NOSIG

时间: 23:19 (16:19 UTC)

预报

该预报发布于5小时和19分钟前的11:00 UTC
预报有效从13日的 12点(UTC)到 14日的 18点(UTC)
风速3节,风向西北
能见度10公里或以上
散云层高于1800英尺
成为
从 13日的 14点(UTC)到 13日的 15点(UTC)
风速节,风向

TAF: WABB 131100Z 1312/1418 32003KT 9999 SCT018 BECMG 1314/1315 00000KT

超过4000个机场的气象观测和天气预报(METAR&TAF报告)。

可查询的气象台以黄色和红色小点在地图上表示。

将鼠标移到小点上方,可查看气象台名称。

然后点击查看天气观测和预报。

如需切换地图:点击带黑十字的绿色按钮放大地图;点击带横线的绿色按钮缩小地图;或者点击绿色箭头查看邻近地区的地图。


METAR-TAF: